ADDS METAR Data INFO
IDs: Format: Raw Decoded Include TAF

Data at: 1013 UTC 12 Dec 2017

KTIF 120955Z AUTO 28006KT 10SM CLR M05/M06 A3033 RMK AO2 T10491061
KTIF 120935Z AUTO 28008KT 10SM CLR M05/M06 A3034 RMK AO2 T10501061
KTIF 120915Z AUTO 29006KT 10SM CLR M05/M06 A3035 RMK AO2 T10471059
KTIF 120855Z AUTO 29008KT 10SM CLR M04/M05 A3035 RMK AO2 T10421055
KTIF 120835Z AUTO 29007KT 10SM CLR M04/M05 A3036 RMK AO2 T10401053
KTIF 120815Z AUTO 29007KT 10SM CLR M04/M05 A3037 RMK AO2 T10391053
KTIF 120755Z AUTO 29007KT 10SM CLR M04/M05 A3037 RMK AO2 T10371052
KTIF 120735Z AUTO 29006KT 10SM CLR M04/M05 A3037 RMK AO2 T10401055
KTIF 120715Z AUTO 28005KT 10SM CLR M03/M05 A3038 RMK AO2 T10341051
KTIF 120655Z AUTO 27007KT 10SM CLR M02/M05 A3038 RMK AO2 T10211046
KTIF 120635Z AUTO 29005KT 10SM SCT027 M01/M04 A3038 RMK AO2 T10091037
KTIF 120615Z AUTO 29004KT 10SM SCT027 01/M03 A3038 RMK AO2 T00091026
KTIF 120555Z AUTO 32006KT 10SM OVC027 03/M02 A3038 RMK AO2 T00251022 10048 20025 401050022
KTIF 120535Z AUTO 35008KT 10SM OVC029 03/M02 A3038 RMK AO2 T00271022
KTIF 120515Z AUTO 34013G16KT 10SM OVC029 03/M02 A3037 RMK AO2 T00321021
KTIF 120455Z AUTO 33009G15KT 10SM OVC029 03/M02 A3038 RMK AO2 T00331020
KTIF 120435Z AUTO 35010KT 10SM OVC029 03/M02 A3038 RMK AO2 T00341016
KTIF 120415Z AUTO 34010KT 10SM OVC029 04/M01 A3038 RMK AO2 T00351015
KTIF 120355Z AUTO 34008KT 10SM OVC029 04/M01 A3038 RMK AO2 T00351013
KTIF 120335Z AUTO 34007KT 10SM OVC031 04/M01 A3038 RMK AO2 T00361014
KTIF 120315Z AUTO 34009KT 10SM OVC031 04/M01 A3037 RMK AO2 T00371015
KTIF 120255Z AUTO 34009G14KT 10SM OVC033 04/M01 A3038 RMK AO2 T00401015
KTIF 120235Z AUTO 34008KT 10SM OVC035 04/M01 A3037 RMK AO2 T00411015
KTIF 120215Z AUTO 35011G18KT 10SM OVC037 04/M01 A3037 RMK AO2 T00411015
KTIF 120155Z AUTO 35010KT 10SM OVC037 04/M01 A3036 RMK AO2 T00421015
KTIF 120135Z AUTO 34009KT 10SM OVC039 04/M01 A3036 RMK AO2 T00411015
KTIF 120115Z AUTO 35010KT 10SM OVC039 04/M01 A3035 RMK AO2 T00421015
KTIF 120055Z AUTO 35008G16KT 10SM OVC041 04/M01 A3035 RMK AO2 T00421015
KTIF 120035Z AUTO 35009KT 10SM SCT036 BKN041 OVC050 04/M01 A3034 RMK AO2 T00431015
KTIF 120015Z AUTO 33012G17KT 10SM SCT032 BKN037 OVC050 05/M01 A3033 RMK AO2 T00451015
KTIF 112355Z AUTO 34014G19KT 10SM OVC035 05/M02 A3033 RMK AO2 T00481016 10083 20045
KTIF 112335Z AUTO 33013G18KT 10SM OVC037 05/M02 A3032 RMK AO2 T00471016
KTIF 112315Z AUTO 34018G22KT 10SM BKN033 BKN048 BKN080 05/M02 A3031 RMK AO2 T00501017
KTIF 112255Z AUTO 34014G23KT 10SM SCT080 SCT110 05/M02 A3031 RMK AO2 T00461016
KTIF 112235Z AUTO 34019G25KT 10SM SCT034 SCT080 05/M02 A3029 RMK AO2 T00501016
KTIF 112215Z AUTO 35024G32KT 10SM SCT034 BKN080 OVC085 06/M02 A3028 RMK AO2 T00591017
KTIF 112155Z AUTO 34014G21KT 10SM SCT034 BKN080 05/M02 A3029 RMK AO2 T00521018
KTIF 112135Z AUTO 34016G28KT 10SM BKN034 05/M02 A3028 RMK AO2 T00521020
KTIF 112115Z AUTO 33021G29KT 10SM OVC034 06/M02 A3027 RMK AO2 T00561020
KTIF 112055Z AUTO 34019G33KT 10SM OVC034 06/M02 A3026 RMK AO2 T00601020
KTIF 112035Z AUTO 34023G34KT 10SM OVC036 06/M02 A3025 RMK AO2 T00631021
KTIF 112015Z AUTO 34021G32KT 10SM OVC034 06/M02 A3024 RMK AO2 T00601023
KTIF 111955Z AUTO 34022G30KT 10SM OVC036 06/M02 A3024 RMK AO2 T00601025
KTIF 111935Z AUTO 33028G37KT 10SM OVC039 06/M03 A3024 RMK AO2 T00611026
KTIF 111915Z AUTO 34027G36KT 10SM BKN043 07/M03 A3022 RMK AO2 T00661029
KTIF 111855Z AUTO 35023G34KT 10SM SCT045 07/M03 A3021 RMK AO2 T00741032
KTIF 111835Z AUTO 35023G37KT 10SM CLR 08/M04 A3020 RMK AO2 T00811039
KTIF 111815Z AUTO 33027G38KT 10SM SCT048 08/M04 A3020 RMK AO2 T00821042
KTIF 111755Z AUTO 33029G39KT 10SM CLR 08/M04 A3019 RMK AO2 T00801045 10105 20075
KTIF 111735Z AUTO 33029G37KT 10SM CLR 08/M05 A3020 RMK AO2 T00821048
KTIF 111715Z AUTO 34030G38KT 10SM CLR 08/M05 A3019 RMK AO2 T00811048
KTIF 111655Z AUTO 33030G35KT 10SM CLR 09/M05 A3019 RMK AO2 T00861050
KTIF 111635Z AUTO 32023G33KT 10SM CLR 08/M06 A3018 RMK AO2 T00831057
KTIF 111615Z AUTO 33022G31KT 10SM CLR 09/M06 A3017 RMK AO2 T00851062
KTIF 111555Z AUTO 33023G35KT 10SM CLR 08/M06 A3017 RMK AO2 T00821065
KTIF 111535Z AUTO 33019G30KT 10SM CLR 08/M07 A3016 RMK AO2 T00771071
KTIF 111515Z AUTO 33022G32KT 10SM CLR 08/M07 A3015 RMK AO2 T00801070
KTIF 111455Z AUTO 33025G38KT 10SM CLR 08/M07 A3014 RMK AO2 T00761071
KTIF 111435Z AUTO 32013G18KT 10SM CLR 08/M07 A3014 RMK AO2 T00771075
KTIF 111415Z AUTO 32015G22KT 10SM CLR 08/M08 A3013 RMK AO2 T00821076
KTIF 111355Z AUTO 32018G28KT 10SM CLR 09/M08 A3012 RMK AO2 T00891077
KTIF 111335Z AUTO 31021G31KT 10SM CLR 09/M08 A3011 RMK AO2 T00881080
KTIF 111315Z AUTO 30020G25KT 10SM CLR 09/M08 A3011 RMK AO2 T00921078
KTIF 111255Z AUTO 31019G27KT 10SM CLR 10/M08 A3011 RMK AO2 T00991080
KTIF 111235Z AUTO 32022G32KT 10SM CLR 10/M08 A3011 RMK AO2 T01021082
KTIF 111215Z AUTO 32023G31KT 10SM CLR 10/M08 A3011 RMK AO2 T01041081
KTIF 111155Z AUTO 33025G33KT 10SM CLR 10/M08 A3011 RMK AO2 T01011080 10101 20022
KTIF 111135Z AUTO 33022G29KT 10SM CLR 10/M08 A3011 RMK AO2 T00961079
KTIF 111115Z AUTO 31011KT 10SM CLR 09/M08 A3013 RMK AO2 T00851078
KTIF 111055Z AUTO 31013KT 10SM CLR 08/M08 A3013 RMK AO2 T00841077
KTIF 111035Z AUTO 30007KT 10SM CLR 05/M08 A3013 RMK AO2 T00531083
KTIF 111015Z AUTO 29011KT 10SM CLR 06/M08 A3014 RMK AO2 T00561085
KTIF 110955Z AUTO 29011KT 10SM CLR 06/M09 A3013 RMK AO2 T00581086
KTIF 110935Z AUTO 30010KT 10SM CLR 06/M09 A3014 RMK AO2 T00551088
KTIF 110915Z AUTO 29007KT 10SM CLR 05/M09 A3013 RMK AO2 T00501090
KTIF 110855Z AUTO 30008KT 10SM CLR 05/M09 A3013 RMK AO2 T00531091
KTIF 110835Z AUTO 29009KT 10SM CLR 05/M09 A3011 RMK AO2 T00461093
KTIF 110815Z AUTO 28013KT 10SM CLR 05/M09 A3010 RMK AO2 T00481092
KTIF 110755Z AUTO 29011KT 10SM CLR 05/M09 A3011 RMK AO2 T00451092
KTIF 110735Z AUTO 29011KT 10SM CLR 05/M09 A3011 RMK AO2 T00451090
KTIF 110715Z AUTO 28011KT 10SM CLR 04/M09 A3011 RMK AO2 T00371090
KTIF 110655Z AUTO 28008KT 10SM CLR 03/M09 A3011 RMK AO2 T00341088
KTIF 110635Z AUTO 29009KT 10SM CLR 03/M09 A3013 RMK AO2 T00291087
KTIF 110615Z AUTO 29010KT 10SM CLR 03/M08 A3013 RMK AO2 T00301085
KTIF 110555Z AUTO 29009KT 10SM CLR 03/M09 A3013 RMK AO2 T00311086 10083 21007 401741007
KTIF 110535Z AUTO 28011KT 10SM CLR 03/M09 A3013 RMK AO2 T00331087
KTIF 110515Z AUTO 28012KT 10SM CLR 04/M09 A3013 RMK AO2 T00351090
KTIF 110455Z AUTO 28010KT 10SM CLR 01/M09 A3013 RMK AO2 T00131095
KTIF 110435Z AUTO 30006KT 10SM CLR 00/M10 A3013 RMK AO2 T00011101
KTIF 110415Z AUTO 28008KT 10SM CLR M01/M11 A3014 RMK AO2 T10061107
KTIF 110355Z AUTO 28007KT 10SM CLR 03/M11 A3014 RMK AO2 T00251111
KTIF 110335Z AUTO 27006KT 10SM CLR 01/M11 A3014 RMK AO2 T00111115
KTIF 110315Z AUTO 28007KT 10SM CLR 03/M11 A3015 RMK AO2 T00251110
KTIF 110255Z AUTO 29008KT 10SM CLR 05/M11 A3015 RMK AO2 T00481108
KTIF 110235Z AUTO 29010KT 10SM CLR 05/M11 A3015 RMK AO2 T00451106
KTIF 110215Z AUTO 28008KT 10SM CLR 03/M11 A3016 RMK AO2 T00291110
KTIF 110155Z AUTO 27008KT 10SM CLR 04/M11 A3016 RMK AO2 T00411113
KTIF 110135Z AUTO 27007KT 10SM CLR 05/M11 A3016 RMK AO2 T00541110
KTIF 110115Z AUTO 27009KT 10SM CLR 06/M11 A3016 RMK AO2 T00581107
KTIF 110055Z AUTO 27007KT 10SM CLR 07/M10 A3016 RMK AO2 T00671105
KTIF 110035Z AUTO 27005KT 10SM CLR 08/M10 A3016 RMK AO2 T00781105
KTIF 110015Z AUTO 27005KT 10SM CLR 07/M11 A3017 RMK AO2 T00741110
KTIF 102355Z AUTO 27005KT 10SM CLR 08/M11 A3017 RMK AO2 T00811111 10174 20081
KTIF 102335Z AUTO 26005KT 10SM CLR 09/M11 A3017 RMK AO2 T00851112
KTIF 102315Z AUTO 28005KT 10SM CLR 11/M11 A3017 RMK AO2 T01101106
KTIF 102255Z AUTO 28006KT 10SM CLR 12/M11 A3017 RMK AO2 T01181110
KTIF 102235Z AUTO 29007KT 10SM CLR 14/M10 A3017 RMK AO2 T01401102
KTIF 102215Z AUTO 30009KT 10SM CLR 15/M10 A3017 RMK AO2 T01541101